Petersburg, Kentucky
Current Conditions -  °F | °C
As of 2:59 PM on Monday 24 Nov 2014 (Local Time) from KCVG Reporting Station
Overcast Overcast  
Wind Chill: 38°   Ceiling: 3000
Heat Index: 45°   Visibility: 10mi
Dew Point: 32°   Wind: 13mph
Humidity: 61%   Direction: 250°WSW
Pressure: 29.68"   Gusts: 30mph
Location:  39.06°N, 84.87°W
Report Text: KCVG 241959Z 25011G26KT 10SM BKN030 OVC034 07/00 A2968 RMK AO2 PK WND 23026/1955
Loading
Personal Weather Stations






























Interactive Weather Map New forecast layout! Learn more

10-Day Weather Forecast

Advertisements
Track Severe Weather on mobile